This is the latest recevied weather packets stored in our database for station/object NY3Q. If no packets are shown the sender has not sent any weather packets the latest 10 day(s).
| Time | Temp. | Humidity | Pressure | Rain* | Wind** | Luminosity | Snow |
|---|---|---|---|---|---|---|---|
| 1777829267 | 22.78° C | 55% | 1019.6 hPa | 0 mm | - | 672 W/m² | - |
| 1777828964 | 22.22° C | 54% | 1019.5 hPa | 0 mm | - | 669 W/m² | - |
| 1777828054 | 22.22° C | 56% | 1019.9 hPa | 0 mm | - | 668 W/m² | - |
| 1777826235 | 21.67° C | 56% | 1020 hPa | 0 mm | - | 646 W/m² | - |
| 1777825933 | 21.67° C | 58% | 1020.2 hPa | 0 mm | - | 647 W/m² | - |
| 1777825328 | 22.22° C | 60% | 1020.4 hPa | 0 mm | - | 639 W/m² | - |
| 1777825025 | 21.11° C | 64% | 1020.4 hPa | 0 mm | - | 647 W/m² | - |
| 1777824720 | 20.56° C | 62% | 1020.4 hPa | 0 mm | - | 665 W/m² | - |
| 1777824417 | 21.11° C | 59% | 1020.3 hPa | 0 mm | - | 663 W/m² | - |
| 1777824113 | 21.67° C | 60% | 1020 hPa | 0 mm | - | 626 W/m² | - |
| 1777822600 | 21.67° C | 58% | 1020 hPa | 0 mm | - | 573 W/m² | - |
| 1777821994 | 21.11° C | 62% | 1020 hPa | 0 mm | - | 557 W/m² | - |
| 1777821390 | 21.11° C | 60% | 1020 hPa | 0 mm | - | 530 W/m² | - |
| 1777821086 | 21.11° C | 63% | 1020.1 hPa | 0 mm | - | 530 W/m² | - |
| 1777819874 | 20.56° C | 65% | 1020 hPa | 0 mm | - | 500 W/m² | - |
| 1777818661 | 20.56° C | 64% | 1019.7 hPa | 0 mm | - | 481 W/m² | - |
| 1777818359 | 21.11° C | 64% | 1019.8 hPa | 0 mm | - | 469 W/m² | - |
| 1777817752 | 20.56° C | 71% | 1019.5 hPa | 0 mm | - | 431 W/m² | - |
| 1777817450 | 20.56° C | 73% | 1019.4 hPa | 0 mm | - | 468 W/m² | - |
| 1777817145 | 20° C | 73% | 1019.5 hPa | 0 mm | - | 437 W/m² | - |
| 1777815026 | 19.44° C | 80% | 1019.1 hPa | 0 mm | - | 293 W/m² | - |
| 1777809876 | 15.56° C | 97% | 1018.5 hPa | 0 mm | - | 62 W/m² | - |
| 1777809574 | 15° C | 97% | 1018.6 hPa | 0 mm | - | 57 W/m² | - |
| 1777808969 | 15° C | 97% | 1018.7 hPa | 0 mm | - | 46 W/m² | - |
| 1777806551 | 12.78° C | 97% | 1018.2 hPa | 0 mm | - | 15 W/m² | - |
* Rain latest hour (hover to see other rain measurements)
** Current wind speed in m/s (hover to see current wind gust speed)